sensor_id;sensor_type;location;lat;lon;timestamp;P1;durP1;ratioP1;P2;durP2;ratioP2
31406;SDS011;18043;52.438;4.836;2022-07-04T00:01:28;7.50;;;3.03;;
31406;SDS011;18043;52.438;4.836;2022-07-04T00:04:01;5.40;;;2.40;;
31406;SDS011;18043;52.438;4.836;2022-07-04T00:06:34;8.15;;;2.65;;
31406;SDS011;18043;52.438;4.836;2022-07-04T00:09:07;11.65;;;3.40;;
31406;SDS011;18043;52.438;4.836;2022-07-04T00:11:40;10.45;;;3.03;;
31406;SDS011;18043;52.438;4.836;2022-07-04T00:14:13;7.50;;;2.77;;
31406;SDS011;18043;52.438;4.836;2022-07-04T00:16:47;10.50;;;2.65;;
31406;SDS011;18043;52.438;4.836;2022-07-04T00:19:20;8.00;;;2.42;;
31406;SDS011;18043;52.438;4.836;2022-07-04T00:21:53;6.30;;;2.55;;
31406;SDS011;18043;52.438;4.836;2022-07-04T00:24:26;7.45;;;3.33;;
31406;SDS011;18043;52.438;4.836;2022-07-04T00:26:59;7.85;;;2.60;;
31406;SDS011;18043;52.438;4.836;2022-07-04T00:29:31;8.30;;;2.77;;
31406;SDS011;18043;52.438;4.836;2022-07-04T00:32:06;11.05;;;2.67;;
31406;SDS011;18043;52.438;4.836;2022-07-04T00:34:40;7.40;;;2.65;;
31406;SDS011;18043;52.438;4.836;2022-07-04T00:37:12;8.30;;;3.13;;
31406;SDS011;18043;52.438;4.836;2022-07-04T00:39:45;8.43;;;3.20;;
31406;SDS011;18043;52.438;4.836;2022-07-04T00:42:18;12.30;;;3.10;;
31406;SDS011;18043;52.438;4.836;2022-07-04T00:44:50;7.85;;;2.92;;
31406;SDS011;18043;52.438;4.836;2022-07-04T00:47:25;13.40;;;2.80;;
31406;SDS011;18043;52.438;4.836;2022-07-04T00:49:57;9.55;;;2.30;;
31406;SDS011;18043;52.438;4.836;2022-07-04T00:52:30;8.45;;;2.38;;
31406;SDS011;18043;52.438;4.836;2022-07-04T00:55:03;8.25;;;2.90;;
31406;SDS011;18043;52.438;4.836;2022-07-04T00:57:37;11.15;;;2.72;;
31406;SDS011;18043;52.438;4.836;2022-07-04T01:00:10;13.35;;;3.30;;
31406;SDS011;18043;52.438;4.836;2022-07-04T01:02:45;7.20;;;2.53;;
31406;SDS011;18043;52.438;4.836;2022-07-04T01:05:18;8.10;;;2.60;;
31406;SDS011;18043;52.438;4.836;2022-07-04T01:07:51;9.65;;;2.70;;
31406;SDS011;18043;52.438;4.836;2022-07-04T01:10:23;8.70;;;2.80;;
31406;SDS011;18043;52.438;4.836;2022-07-04T01:12:56;6.55;;;2.20;;
31406;SDS011;18043;52.438;4.836;2022-07-04T01:15:29;6.82;;;2.30;;
31406;SDS011;18043;52.438;4.836;2022-07-04T01:18:06;9.50;;;2.72;;
31406;SDS011;18043;52.438;4.836;2022-07-04T01:20:40;10.07;;;2.80;;
31406;SDS011;18043;52.438;4.836;2022-07-04T01:23:13;8.73;;;2.40;;
31406;SDS011;18043;52.438;4.836;2022-07-04T01:25:46;7.45;;;2.88;;
31406;SDS011;18043;52.438;4.836;2022-07-04T01:28:20;7.00;;;2.60;;
31406;SDS011;18043;52.438;4.836;2022-07-04T01:30:53;7.97;;;2.63;;
31406;SDS011;18043;52.438;4.836;2022-07-04T01:33:26;9.88;;;2.45;;
31406;SDS011;18043;52.438;4.836;2022-07-04T01:36:00;9.73;;;2.88;;
31406;SDS011;18043;52.438;4.836;2022-07-04T01:38:33;8.70;;;2.92;;
31406;SDS011;18043;52.438;4.836;2022-07-04T01:41:05;11.60;;;3.67;;
31406;SDS011;18043;52.438;4.836;2022-07-04T01:43:38;14.90;;;4.50;;
31406;SDS011;18043;52.438;4.836;2022-07-04T01:46:10;12.98;;;4.07;;
31406;SDS011;18043;52.438;4.836;2022-07-04T01:48:43;14.55;;;4.03;;
31406;SDS011;18043;52.438;4.836;2022-07-04T01:51:17;11.45;;;3.58;;
31406;SDS011;18043;52.438;4.836;2022-07-04T01:53:50;14.95;;;3.03;;
31406;SDS011;18043;52.438;4.836;2022-07-04T01:56:23;13.48;;;3.00;;
31406;SDS011;18043;52.438;4.836;2022-07-04T01:58:55;11.20;;;2.78;;
31406;SDS011;18043;52.438;4.836;2022-07-04T02:01:29;9.75;;;2.72;;
31406;SDS011;18043;52.438;4.836;2022-07-04T02:04:01;9.50;;;2.80;;
31406;SDS011;18043;52.438;4.836;2022-07-04T02:06:37;17.40;;;2.92;;
31406;SDS011;18043;52.438;4.836;2022-07-04T02:09:09;11.80;;;3.17;;
31406;SDS011;18043;52.438;4.836;2022-07-04T02:11:49;10.35;;;3.00;;
31406;SDS011;18043;52.438;4.836;2022-07-04T02:14:39;10.70;;;2.78;;
31406;SDS011;18043;52.438;4.836;2022-07-04T02:17:13;8.83;;;2.57;;
31406;SDS011;18043;52.438;4.836;2022-07-04T02:19:46;10.20;;;2.83;;
31406;SDS011;18043;52.438;4.836;2022-07-04T02:22:20;13.13;;;3.42;;
31406;SDS011;18043;52.438;4.836;2022-07-04T02:24:53;13.13;;;2.88;;
31406;SDS011;18043;52.438;4.836;2022-07-04T02:27:25;11.63;;;3.40;;
31406;SDS011;18043;52.438;4.836;2022-07-04T02:29:58;16.27;;;3.65;;
31406;SDS011;18043;52.438;4.836;2022-07-04T02:32:31;8.90;;;3.00;;
31406;SDS011;18043;52.438;4.836;2022-07-04T02:35:04;9.88;;;3.30;;
31406;SDS011;18043;52.438;4.836;2022-07-04T02:37:40;10.17;;;3.60;;
31406;SDS011;18043;52.438;4.836;2022-07-04T02:40:12;10.98;;;3.70;;
31406;SDS011;18043;52.438;4.836;2022-07-04T02:42:45;13.80;;;4.00;;
31406;SDS011;18043;52.438;4.836;2022-07-04T02:45:18;11.60;;;3.85;;
31406;SDS011;18043;52.438;4.836;2022-07-04T02:47:50;14.63;;;4.38;;
31406;SDS011;18043;52.438;4.836;2022-07-04T02:50:23;11.00;;;4.05;;
31406;SDS011;18043;52.438;4.836;2022-07-04T02:52:57;11.63;;;3.60;;
31406;SDS011;18043;52.438;4.836;2022-07-04T02:55:30;16.45;;;4.80;;
31406;SDS011;18043;52.438;4.836;2022-07-04T02:58:03;12.68;;;5.07;;
31406;SDS011;18043;52.438;4.836;2022-07-04T03:00:35;13.20;;;4.63;;
31406;SDS011;18043;52.438;4.836;2022-07-04T03:03:08;14.48;;;4.78;;
31406;SDS011;18043;52.438;4.836;2022-07-04T03:05:41;18.10;;;4.63;;
31406;SDS011;18043;52.438;4.836;2022-07-04T03:08:15;13.48;;;4.90;;
31406;SDS011;18043;52.438;4.836;2022-07-04T03:10:48;15.85;;;5.15;;
31406;SDS011;18043;52.438;4.836;2022-07-04T03:13:21;11.77;;;5.00;;
31406;SDS011;18043;52.438;4.836;2022-07-04T03:15:55;16.05;;;5.47;;
31406;SDS011;18043;52.438;4.836;2022-07-04T03:18:30;12.68;;;5.13;;
31406;SDS011;18043;52.438;4.836;2022-07-04T03:21:03;13.27;;;4.72;;
31406;SDS011;18043;52.438;4.836;2022-07-04T03:23:38;16.92;;;4.32;;
31406;SDS011;18043;52.438;4.836;2022-07-04T03:26:10;11.85;;;4.65;;
31406;SDS011;18043;52.438;4.836;2022-07-04T03:28:43;15.45;;;4.70;;
31406;SDS011;18043;52.438;4.836;2022-07-04T03:31:16;15.23;;;4.93;;
31406;SDS011;18043;52.438;4.836;2022-07-04T03:33:48;12.30;;;5.25;;
31406;SDS011;18043;52.438;4.836;2022-07-04T03:36:21;14.05;;;5.38;;
31406;SDS011;18043;52.438;4.836;2022-07-04T03:38:56;13.55;;;5.10;;
31406;SDS011;18043;52.438;4.836;2022-07-04T03:41:29;15.93;;;5.00;;
31406;SDS011;18043;52.438;4.836;2022-07-04T03:44:01;14.10;;;4.83;;
31406;SDS011;18043;52.438;4.836;2022-07-04T03:46:34;12.95;;;5.63;;
31406;SDS011;18043;52.438;4.836;2022-07-04T03:49:07;12.82;;;5.38;;
31406;SDS011;18043;52.438;4.836;2022-07-04T03:51:40;15.10;;;5.88;;
31406;SDS011;18043;52.438;4.836;2022-07-04T03:54:14;13.52;;;5.53;;
31406;SDS011;18043;52.438;4.836;2022-07-04T03:56:50;15.48;;;5.32;;
31406;SDS011;18043;52.438;4.836;2022-07-04T03:59:22;18.27;;;6.15;;
31406;SDS011;18043;52.438;4.836;2022-07-04T04:01:55;15.37;;;5.50;;
31406;SDS011;18043;52.438;4.836;2022-07-04T04:04:28;20.52;;;5.60;;
31406;SDS011;18043;52.438;4.836;2022-07-04T04:07:18;15.15;;;5.20;;
31406;SDS011;18043;52.438;4.836;2022-07-04T04:09:52;20.00;;;6.10;;
31406;SDS011;18043;52.438;4.836;2022-07-04T04:12:42;13.82;;;6.30;;
31406;SDS011;18043;52.438;4.836;2022-07-04T04:15:15;16.80;;;5.72;;
31406;SDS011;18043;52.438;4.836;2022-07-04T04:17:48;18.27;;;6.30;;
31406;SDS011;18043;52.438;4.836;2022-07-04T04:20:21;17.57;;;6.00;;
31406;SDS011;18043;52.438;4.836;2022-07-04T04:22:54;14.52;;;6.15;;
31406;SDS011;18043;52.438;4.836;2022-07-04T04:25:28;17.17;;;6.30;;
31406;SDS011;18043;52.438;4.836;2022-07-04T04:28:01;17.73;;;5.75;;
31406;SDS011;18043;52.438;4.836;2022-07-04T04:30:33;22.35;;;6.93;;
31406;SDS011;18043;52.438;4.836;2022-07-04T04:33:06;16.00;;;6.35;;
31406;SDS011;18043;52.438;4.836;2022-07-04T04:35:39;20.20;;;6.45;;
31406;SDS011;18043;52.438;4.836;2022-07-04T04:38:12;24.58;;;6.13;;
31406;SDS011;18043;52.438;4.836;2022-07-04T04:40:46;15.30;;;6.30;;
31406;SDS011;18043;52.438;4.836;2022-07-04T04:43:19;12.88;;;5.38;;
31406;SDS011;18043;52.438;4.836;2022-07-04T04:45:52;18.40;;;5.95;;
31406;SDS011;18043;52.438;4.836;2022-07-04T04:48:25;27.58;;;5.70;;
31406;SDS011;18043;52.438;4.836;2022-07-04T04:50:57;17.25;;;6.22;;
31406;SDS011;18043;52.438;4.836;2022-07-04T04:53:30;20.15;;;6.82;;
31406;SDS011;18043;52.438;4.836;2022-07-04T04:56:04;17.33;;;5.32;;
31406;SDS011;18043;52.438;4.836;2022-07-04T04:58:37;16.98;;;5.80;;
31406;SDS011;18043;52.438;4.836;2022-07-04T05:01:10;21.60;;;5.88;;
31406;SDS011;18043;52.438;4.836;2022-07-04T05:03:43;24.27;;;5.88;;
31406;SDS011;18043;52.438;4.836;2022-07-04T05:06:15;20.20;;;5.00;;
31406;SDS011;18043;52.438;4.836;2022-07-04T05:08:48;16.20;;;4.78;;
31406;SDS011;18043;52.438;4.836;2022-07-04T05:11:22;21.77;;;4.63;;
31406;SDS011;18043;52.438;4.836;2022-07-04T05:13:55;13.53;;;4.07;;
31406;SDS011;18043;52.438;4.836;2022-07-04T05:16:27;13.68;;;3.25;;
31406;SDS011;18043;52.438;4.836;2022-07-04T05:19:00;7.35;;;2.47;;
31406;SDS011;18043;52.438;4.836;2022-07-04T05:21:33;10.18;;;3.05;;
31406;SDS011;18043;52.438;4.836;2022-07-04T05:24:06;6.97;;;2.35;;
31406;SDS011;18043;52.438;4.836;2022-07-04T05:26:42;10.25;;;2.90;;
31406;SDS011;18043;52.438;4.836;2022-07-04T05:29:15;6.10;;;1.88;;
31406;SDS011;18043;52.438;4.836;2022-07-04T05:31:48;9.48;;;1.90;;
31406;SDS011;18043;52.438;4.836;2022-07-04T05:34:20;6.05;;;1.60;;
31406;SDS011;18043;52.438;4.836;2022-07-04T05:36:53;7.43;;;1.80;;
31406;SDS011;18043;52.438;4.836;2022-07-04T05:39:26;5.32;;;1.50;;
31406;SDS011;18043;52.438;4.836;2022-07-04T05:42:00;6.70;;;1.50;;
31406;SDS011;18043;52.438;4.836;2022-07-04T05:44:33;5.60;;;1.25;;
31406;SDS011;18043;52.438;4.836;2022-07-04T05:47:06;6.22;;;1.90;;
31406;SDS011;18043;52.438;4.836;2022-07-04T05:49:39;5.30;;;1.40;;
31406;SDS011;18043;52.438;4.836;2022-07-04T05:52:12;4.75;;;1.70;;
31406;SDS011;18043;52.438;4.836;2022-07-04T05:54:44;2.78;;;1.30;;
31406;SDS011;18043;52.438;4.836;2022-07-04T05:57:20;3.33;;;1.17;;
31406;SDS011;18043;52.438;4.836;2022-07-04T05:59:52;4.85;;;1.00;;
31406;SDS011;18043;52.438;4.836;2022-07-04T06:02:25;4.55;;;1.20;;
31406;SDS011;18043;52.438;4.836;2022-07-04T06:04:58;4.50;;;0.80;;
31406;SDS011;18043;52.438;4.836;2022-07-04T06:07:31;4.63;;;1.20;;
31406;SDS011;18043;52.438;4.836;2022-07-04T06:10:03;2.60;;;0.90;;
31406;SDS011;18043;52.438;4.836;2022-07-04T06:12:39;3.42;;;1.38;;
31406;SDS011;18043;52.438;4.836;2022-07-04T06:15:12;3.85;;;0.90;;
31406;SDS011;18043;52.438;4.836;2022-07-04T06:17:45;2.53;;;1.00;;
31406;SDS011;18043;52.438;4.836;2022-07-04T06:20:18;3.30;;;1.00;;
31406;SDS011;18043;52.438;4.836;2022-07-04T06:22:51;1.90;;;0.90;;
31406;SDS011;18043;52.438;4.836;2022-07-04T06:25:23;3.85;;;1.20;;
31406;SDS011;18043;52.438;4.836;2022-07-04T06:27:58;4.90;;;1.10;;
31406;SDS011;18043;52.438;4.836;2022-07-04T06:30:31;2.88;;;1.00;;
31406;SDS011;18043;52.438;4.836;2022-07-04T06:33:04;3.25;;;1.05;;
31406;SDS011;18043;52.438;4.836;2022-07-04T06:35:36;3.83;;;1.08;;
31406;SDS011;18043;52.438;4.836;2022-07-04T06:38:22;2.58;;;1.00;;
31406;SDS011;18043;52.438;4.836;2022-07-04T06:40:57;2.38;;;0.70;;
31406;SDS011;18043;52.438;4.836;2022-07-04T06:43:32;5.32;;;1.02;;
31406;SDS011;18043;52.438;4.836;2022-07-04T06:46:04;2.22;;;1.10;;
31406;SDS011;18043;52.438;4.836;2022-07-04T06:48:37;3.25;;;1.00;;
31406;SDS011;18043;52.438;4.836;2022-07-04T06:51:10;1.93;;;0.87;;
31406;SDS011;18043;52.438;4.836;2022-07-04T06:53:43;3.20;;;0.70;;
31406;SDS011;18043;52.438;4.836;2022-07-04T06:56:17;2.67;;;0.50;;
31406;SDS011;18043;52.438;4.836;2022-07-04T06:58:51;7.00;;;1.15;;
31406;SDS011;18043;52.438;4.836;2022-07-04T07:01:24;3.65;;;0.70;;
31406;SDS011;18043;52.438;4.836;2022-07-04T07:03:56;3.15;;;0.75;;
31406;SDS011;18043;52.438;4.836;2022-07-04T07:06:29;1.50;;;0.80;;
31406;SDS011;18043;52.438;4.836;2022-07-04T07:09:02;3.07;;;0.97;;
31406;SDS011;18043;52.438;4.836;2022-07-04T07:11:35;3.50;;;0.70;;
31406;SDS011;18043;52.438;4.836;2022-07-04T07:14:09;4.93;;;0.80;;
31406;SDS011;18043;52.438;4.836;2022-07-04T07:16:41;2.70;;;1.20;;
31406;SDS011;18043;52.438;4.836;2022-07-04T07:19:14;2.77;;;0.60;;
31406;SDS011;18043;52.438;4.836;2022-07-04T07:21:47;2.15;;;0.80;;
31406;SDS011;18043;52.438;4.836;2022-07-04T07:24:20;1.98;;;0.70;;
31406;SDS011;18043;52.438;4.836;2022-07-04T07:26:56;1.23;;;0.60;;
31406;SDS011;18043;52.438;4.836;2022-07-04T07:29:30;2.42;;;0.70;;
31406;SDS011;18043;52.438;4.836;2022-07-04T07:32:04;2.27;;;0.77;;
31406;SDS011;18043;52.438;4.836;2022-07-04T07:34:37;1.80;;;0.70;;
31406;SDS011;18043;52.438;4.836;2022-07-04T07:37:10;3.03;;;0.90;;
31406;SDS011;18043;52.438;4.836;2022-07-04T07:39:43;4.47;;;0.90;;
31406;SDS011;18043;52.438;4.836;2022-07-04T07:42:15;2.53;;;0.85;;
31406;SDS011;18043;52.438;4.836;2022-07-04T07:44:50;3.97;;;0.70;;
31406;SDS011;18043;52.438;4.836;2022-07-04T07:47:22;2.97;;;0.85;;
31406;SDS011;18043;52.438;4.836;2022-07-04T07:49:55;4.80;;;0.70;;
31406;SDS011;18043;52.438;4.836;2022-07-04T07:52:28;1.13;;;0.60;;
31406;SDS011;18043;52.438;4.836;2022-07-04T07:55:01;1.92;;;0.80;;
31406;SDS011;18043;52.438;4.836;2022-07-04T07:57:35;1.60;;;0.70;;
31406;SDS011;18043;52.438;4.836;2022-07-04T08:00:10;2.40;;;1.02;;
31406;SDS011;18043;52.438;4.836;2022-07-04T08:02:43;2.17;;;0.75;;
31406;SDS011;18043;52.438;4.836;2022-07-04T08:05:34;3.00;;;0.73;;
31406;SDS011;18043;52.438;4.836;2022-07-04T08:08:09;4.30;;;1.10;;
31406;SDS011;18043;52.438;4.836;2022-07-04T08:10:42;1.90;;;0.73;;
31406;SDS011;18043;52.438;4.836;2022-07-04T08:13:14;3.47;;;1.25;;
31406;SDS011;18043;52.438;4.836;2022-07-04T08:15:49;2.78;;;0.55;;
31406;SDS011;18043;52.438;4.836;2022-07-04T08:18:21;2.45;;;0.80;;
31406;SDS011;18043;52.438;4.836;2022-07-04T08:20:54;3.50;;;0.95;;
31406;SDS011;18043;52.438;4.836;2022-07-04T08:23:27;2.38;;;1.00;;
31406;SDS011;18043;52.438;4.836;2022-07-04T08:26:02;3.78;;;0.68;;
31406;SDS011;18043;52.438;4.836;2022-07-04T08:28:35;3.30;;;0.87;;
31406;SDS011;18043;52.438;4.836;2022-07-04T08:31:10;2.40;;;0.73;;
31406;SDS011;18043;52.438;4.836;2022-07-04T08:33:42;1.83;;;0.85;;
31406;SDS011;18043;52.438;4.836;2022-07-04T08:36:16;4.53;;;0.97;;
31406;SDS011;18043;52.438;4.836;2022-07-04T08:38:49;6.47;;;1.37;;
31406;SDS011;18043;52.438;4.836;2022-07-04T08:41:22;3.05;;;1.17;;
31406;SDS011;18043;52.438;4.836;2022-07-04T08:43:54;4.10;;;1.13;;
31406;SDS011;18043;52.438;4.836;2022-07-04T08:46:29;4.07;;;1.02;;
31406;SDS011;18043;52.438;4.836;2022-07-04T08:49:06;3.03;;;0.90;;
31406;SDS011;18043;52.438;4.836;2022-07-04T08:51:51;2.45;;;0.85;;
31406;SDS011;18043;52.438;4.836;2022-07-04T08:54:25;3.53;;;1.07;;
31406;SDS011;18043;52.438;4.836;2022-07-04T08:57:18;2.85;;;0.73;;
31406;SDS011;18043;52.438;4.836;2022-07-04T09:00:08;3.08;;;1.00;;
31406;SDS011;18043;52.438;4.836;2022-07-04T09:02:43;2.28;;;0.70;;
31406;SDS011;18043;52.438;4.836;2022-07-04T09:05:16;3.75;;;0.88;;
31406;SDS011;18043;52.438;4.836;2022-07-04T09:10:51;2.10;;;0.88;;
31406;SDS011;18043;52.438;4.836;2022-07-04T09:13:25;4.47;;;1.07;;
31406;SDS011;18043;52.438;4.836;2022-07-04T09:15:58;3.97;;;1.30;;
31406;SDS011;18043;52.438;4.836;2022-07-04T09:18:35;3.85;;;0.80;;
31406;SDS011;18043;52.438;4.836;2022-07-04T09:21:09;3.53;;;1.48;;
31406;SDS011;18043;52.438;4.836;2022-07-04T09:23:42;3.83;;;1.17;;
31406;SDS011;18043;52.438;4.836;2022-07-04T09:26:15;4.38;;;0.80;;
31406;SDS011;18043;52.438;4.836;2022-07-04T09:31:54;3.47;;;0.90;;
31406;SDS011;18043;52.438;4.836;2022-07-04T09:34:28;3.83;;;1.20;;
31406;SDS011;18043;52.438;4.836;2022-07-04T09:37:00;5.05;;;0.90;;
31406;SDS011;18043;52.438;4.836;2022-07-04T09:39:33;2.40;;;0.70;;
31406;SDS011;18043;52.438;4.836;2022-07-04T09:42:09;6.85;;;1.20;;
31406;SDS011;18043;52.438;4.836;2022-07-04T09:44:45;2.60;;;0.93;;
31406;SDS011;18043;52.438;4.836;2022-07-04T09:47:20;4.43;;;1.27;;
31406;SDS011;18043;52.438;4.836;2022-07-04T09:49:59;1.77;;;0.73;;
31406;SDS011;18043;52.438;4.836;2022-07-04T09:52:43;5.55;;;1.00;;
31406;SDS011;18043;52.438;4.836;2022-07-04T09:55:21;3.88;;;0.82;;
31406;SDS011;18043;52.438;4.836;2022-07-04T09:57:57;2.83;;;0.98;;
31406;SDS011;18043;52.438;4.836;2022-07-04T10:00:32;2.53;;;1.17;;
31406;SDS011;18043;52.438;4.836;2022-07-04T10:03:16;2.80;;;0.73;;
31406;SDS011;18043;52.438;4.836;2022-07-04T10:06:02;3.13;;;1.02;;
31406;SDS011;18043;52.438;4.836;2022-07-04T10:08:37;3.25;;;0.73;;
31406;SDS011;18043;52.438;4.836;2022-07-04T10:11:11;4.32;;;1.23;;
31406;SDS011;18043;52.438;4.836;2022-07-04T10:13:44;2.38;;;0.68;;
31406;SDS011;18043;52.438;4.836;2022-07-04T10:16:17;2.50;;;0.80;;
31406;SDS011;18043;52.438;4.836;2022-07-04T10:18:50;2.35;;;0.90;;
31406;SDS011;18043;52.438;4.836;2022-07-04T10:21:25;3.88;;;0.70;;
31406;SDS011;18043;52.438;4.836;2022-07-04T10:23:59;4.15;;;0.68;;
31406;SDS011;18043;52.438;4.836;2022-07-04T10:26:33;1.90;;;0.50;;
31406;SDS011;18043;52.438;4.836;2022-07-04T10:29:08;1.40;;;0.57;;
31406;SDS011;18043;52.438;4.836;2022-07-04T10:31:43;2.85;;;0.80;;
31406;SDS011;18043;52.438;4.836;2022-07-04T10:34:16;2.35;;;0.50;;
31406;SDS011;18043;52.438;4.836;2022-07-04T10:36:52;1.60;;;0.60;;
31406;SDS011;18043;52.438;4.836;2022-07-04T10:39:24;2.15;;;0.80;;
31406;SDS011;18043;52.438;4.836;2022-07-04T10:41:59;3.65;;;0.80;;
31406;SDS011;18043;52.438;4.836;2022-07-04T10:44:33;2.47;;;0.90;;
31406;SDS011;18043;52.438;4.836;2022-07-04T10:47:08;2.28;;;0.63;;
31406;SDS011;18043;52.438;4.836;2022-07-04T10:53:10;2.33;;;0.70;;
31406;SDS011;18043;52.438;4.836;2022-07-04T10:55:42;1.92;;;0.65;;
31406;SDS011;18043;52.438;4.836;2022-07-04T10:58:24;3.78;;;0.68;;
31406;SDS011;18043;52.438;4.836;2022-07-04T11:01:10;5.28;;;0.52;;
31406;SDS011;18043;52.438;4.836;2022-07-04T11:03:44;1.42;;;0.57;;
31406;SDS011;18043;52.438;4.836;2022-07-04T11:09:26;2.53;;;0.57;;
31406;SDS011;18043;52.438;4.836;2022-07-04T11:11:59;2.65;;;0.60;;
31406;SDS011;18043;52.438;4.836;2022-07-04T11:14:37;2.55;;;0.73;;
31406;SDS011;18043;52.438;4.836;2022-07-04T11:17:12;2.70;;;0.50;;
31406;SDS011;18043;52.438;4.836;2022-07-04T11:19:50;1.52;;;0.80;;
31406;SDS011;18043;52.438;4.836;2022-07-04T11:22:30;2.05;;;0.70;;
31406;SDS011;18043;52.438;4.836;2022-07-04T11:25:04;1.95;;;0.57;;
31406;SDS011;18043;52.438;4.836;2022-07-04T11:27:38;2.47;;;0.57;;
31406;SDS011;18043;52.438;4.836;2022-07-04T11:30:11;2.85;;;0.70;;
31406;SDS011;18043;52.438;4.836;2022-07-04T11:32:46;0.88;;;0.35;;
31406;SDS011;18043;52.438;4.836;2022-07-04T11:35:20;1.67;;;0.70;;
31406;SDS011;18043;52.438;4.836;2022-07-04T11:37:55;2.80;;;0.75;;
31406;SDS011;18043;52.438;4.836;2022-07-04T11:40:43;1.42;;;0.60;;
31406;SDS011;18043;52.438;4.836;2022-07-04T11:43:34;2.05;;;0.40;;
31406;SDS011;18043;52.438;4.836;2022-07-04T11:46:24;3.15;;;0.65;;
31406;SDS011;18043;52.438;4.836;2022-07-04T11:49:06;0.47;;;0.30;;
31406;SDS011;18043;52.438;4.836;2022-07-04T11:51:43;1.73;;;0.68;;
31406;SDS011;18043;52.438;4.836;2022-07-04T11:54:18;1.55;;;0.70;;
31406;SDS011;18043;52.438;4.836;2022-07-04T11:56:52;1.30;;;0.60;;
31406;SDS011;18043;52.438;4.836;2022-07-04T11:59:39;1.77;;;0.63;;
31406;SDS011;18043;52.438;4.836;2022-07-04T12:02:12;3.37;;;0.73;;
31406;SDS011;18043;52.438;4.836;2022-07-04T12:04:47;1.40;;;0.60;;
31406;SDS011;18043;52.438;4.836;2022-07-04T12:07:20;1.25;;;0.60;;
31406;SDS011;18043;52.438;4.836;2022-07-04T12:09:55;2.80;;;0.60;;
31406;SDS011;18043;52.438;4.836;2022-07-04T12:12:52;2.53;;;0.65;;
31406;SDS011;18043;52.438;4.836;2022-07-04T12:15:35;2.35;;;1.00;;
31406;SDS011;18043;52.438;4.836;2022-07-04T12:18:15;2.83;;;0.50;;
31406;SDS011;18043;52.438;4.836;2022-07-04T12:20:49;3.15;;;0.80;;
31406;SDS011;18043;52.438;4.836;2022-07-04T12:23:23;4.28;;;2.35;;
31406;SDS011;18043;52.438;4.836;2022-07-04T12:25:58;1.60;;;0.50;;
31406;SDS011;18043;52.438;4.836;2022-07-04T12:28:35;3.67;;;0.90;;
31406;SDS011;18043;52.438;4.836;2022-07-04T12:31:08;1.57;;;0.50;;
31406;SDS011;18043;52.438;4.836;2022-07-04T12:33:42;1.52;;;0.70;;
31406;SDS011;18043;52.438;4.836;2022-07-04T12:36:26;3.03;;;0.70;;
31406;SDS011;18043;52.438;4.836;2022-07-04T12:38:59;0.90;;;0.50;;
31406;SDS011;18043;52.438;4.836;2022-07-04T12:41:33;1.75;;;0.40;;
31406;SDS011;18043;52.438;4.836;2022-07-04T12:44:08;1.17;;;0.60;;
31406;SDS011;18043;52.438;4.836;2022-07-04T12:46:55;1.75;;;0.70;;
31406;SDS011;18043;52.438;4.836;2022-07-04T12:49:28;1.30;;;0.32;;
31406;SDS011;18043;52.438;4.836;2022-07-04T12:52:05;2.55;;;0.70;;
31406;SDS011;18043;52.438;4.836;2022-07-04T12:54:40;1.83;;;0.50;;
31406;SDS011;18043;52.438;4.836;2022-07-04T12:57:16;1.40;;;0.80;;
31406;SDS011;18043;52.438;4.836;2022-07-04T12:59:50;1.92;;;0.73;;
31406;SDS011;18043;52.438;4.836;2022-07-04T13:02:23;1.55;;;0.45;;
31406;SDS011;18043;52.438;4.836;2022-07-04T13:04:56;1.73;;;0.75;;
31406;SDS011;18043;52.438;4.836;2022-07-04T13:07:29;1.90;;;0.55;;
31406;SDS011;18043;52.438;4.836;2022-07-04T13:10:02;4.38;;;0.77;;
31406;SDS011;18043;52.438;4.836;2022-07-04T13:12:36;1.27;;;0.60;;
31406;SDS011;18043;52.438;4.836;2022-07-04T13:15:10;1.53;;;0.70;;
31406;SDS011;18043;52.438;4.836;2022-07-04T13:17:43;3.17;;;0.77;;
31406;SDS011;18043;52.438;4.836;2022-07-04T13:20:15;1.98;;;0.45;;
31406;SDS011;18043;52.438;4.836;2022-07-04T13:22:48;3.13;;;0.90;;
31406;SDS011;18043;52.438;4.836;2022-07-04T13:25:21;1.40;;;0.40;;
31406;SDS011;18043;52.438;4.836;2022-07-04T13:27:54;3.00;;;0.60;;
31406;SDS011;18043;52.438;4.836;2022-07-04T13:30:28;2.80;;;0.40;;
31406;SDS011;18043;52.438;4.836;2022-07-04T13:33:01;2.08;;;0.55;;
31406;SDS011;18043;52.438;4.836;2022-07-04T13:35:33;0.85;;;0.50;;
31406;SDS011;18043;52.438;4.836;2022-07-04T13:38:06;3.35;;;0.50;;
31406;SDS011;18043;52.438;4.836;2022-07-04T13:40:40;1.08;;;0.50;;
31406;SDS011;18043;52.438;4.836;2022-07-04T13:43:14;2.55;;;0.70;;
31406;SDS011;18043;52.438;4.836;2022-07-04T13:45:49;6.10;;;0.90;;
31406;SDS011;18043;52.438;4.836;2022-07-04T13:48:22;3.13;;;0.70;;
31406;SDS011;18043;52.438;4.836;2022-07-04T13:50:55;3.23;;;0.80;;
31406;SDS011;18043;52.438;4.836;2022-07-04T13:53:28;4.27;;;0.83;;
31406;SDS011;18043;52.438;4.836;2022-07-04T13:56:03;1.52;;;0.80;;
31406;SDS011;18043;52.438;4.836;2022-07-04T13:58:36;4.88;;;0.55;;
31406;SDS011;18043;52.438;4.836;2022-07-04T14:01:11;1.40;;;0.63;;
31406;SDS011;18043;52.438;4.836;2022-07-04T14:03:45;1.70;;;0.35;;
31406;SDS011;18043;52.438;4.836;2022-07-04T14:06:19;1.55;;;0.52;;
31406;SDS011;18043;52.438;4.836;2022-07-04T14:08:53;4.63;;;0.97;;
31406;SDS011;18043;52.438;4.836;2022-07-04T14:11:25;1.97;;;0.83;;
31406;SDS011;18043;52.438;4.836;2022-07-04T14:13:58;3.45;;;1.00;;
31406;SDS011;18043;52.438;4.836;2022-07-04T14:16:33;3.20;;;0.77;;
31406;SDS011;18043;52.438;4.836;2022-07-04T14:19:06;0.80;;;0.57;;
31406;SDS011;18043;52.438;4.836;2022-07-04T14:21:39;1.60;;;0.60;;
31406;SDS011;18043;52.438;4.836;2022-07-04T14:24:11;1.10;;;0.55;;
31406;SDS011;18043;52.438;4.836;2022-07-04T14:26:44;1.95;;;0.60;;
31406;SDS011;18043;52.438;4.836;2022-07-04T14:29:17;2.10;;;0.75;;
31406;SDS011;18043;52.438;4.836;2022-07-04T14:31:51;1.25;;;0.57;;
31406;SDS011;18043;52.438;4.836;2022-07-04T14:34:24;1.77;;;0.50;;
31406;SDS011;18043;52.438;4.836;2022-07-04T14:36:57;2.78;;;0.70;;
31406;SDS011;18043;52.438;4.836;2022-07-04T14:39:29;4.97;;;0.90;;
31406;SDS011;18043;52.438;4.836;2022-07-04T14:42:02;2.10;;;0.60;;
31406;SDS011;18043;52.438;4.836;2022-07-04T14:44:36;2.92;;;0.60;;
31406;SDS011;18043;52.438;4.836;2022-07-04T14:47:10;2.30;;;0.70;;
31406;SDS011;18043;52.438;4.836;2022-07-04T14:49:42;4.30;;;0.73;;
31406;SDS011;18043;52.438;4.836;2022-07-04T14:52:15;2.13;;;0.70;;
31406;SDS011;18043;52.438;4.836;2022-07-04T14:54:48;1.40;;;0.77;;
31406;SDS011;18043;52.438;4.836;2022-07-04T14:57:21;1.92;;;0.60;;
31406;SDS011;18043;52.438;4.836;2022-07-04T14:59:54;2.77;;;0.83;;
31406;SDS011;18043;52.438;4.836;2022-07-04T15:02:28;1.67;;;0.57;;
31406;SDS011;18043;52.438;4.836;2022-07-04T15:08:28;2.17;;;0.70;;
31406;SDS011;18043;52.438;4.836;2022-07-04T15:11:01;2.33;;;0.68;;
31406;SDS011;18043;52.438;4.836;2022-07-04T15:13:34;1.38;;;0.57;;
31406;SDS011;18043;52.438;4.836;2022-07-04T15:16:06;2.95;;;1.00;;
31406;SDS011;18043;52.438;4.836;2022-07-04T15:18:40;4.22;;;0.80;;
31406;SDS011;18043;52.438;4.836;2022-07-04T15:21:16;0.70;;;0.50;;
31406;SDS011;18043;52.438;4.836;2022-07-04T15:24:06;2.60;;;1.00;;
31406;SDS011;18043;52.438;4.836;2022-07-04T15:26:43;1.77;;;0.80;;
31406;SDS011;18043;52.438;4.836;2022-07-04T15:29:20;2.20;;;0.60;;
31406;SDS011;18043;52.438;4.836;2022-07-04T15:31:56;3.03;;;0.90;;
31406;SDS011;18043;52.438;4.836;2022-07-04T15:34:30;2.53;;;0.90;;
31406;SDS011;18043;52.438;4.836;2022-07-04T15:37:03;2.90;;;0.90;;
31406;SDS011;18043;52.438;4.836;2022-07-04T15:39:39;2.13;;;0.93;;
31406;SDS011;18043;52.438;4.836;2022-07-04T15:42:14;2.53;;;0.95;;
31406;SDS011;18043;52.438;4.836;2022-07-04T15:44:47;2.40;;;0.93;;